createdAt,value
2022-08-20T00:00:18.601Z,13.77
2022-08-20T00:03:23.342Z,13.70
2022-08-20T00:06:28.726Z,13.60
2022-08-20T00:09:31.701Z,13.23
2022-08-20T00:12:42.942Z,15.25
2022-08-20T00:15:46.002Z,13.73
2022-08-20T00:18:49.208Z,13.83
2022-08-20T00:21:52.239Z,13.88
2022-08-20T00:25:01.182Z,14.43
2022-08-20T00:28:04.284Z,14.30
2022-08-20T00:31:10.604Z,14.43
2022-08-20T00:34:13.563Z,13.57
2022-08-20T00:37:16.538Z,14.73
2022-08-20T00:40:23.314Z,13.25
2022-08-20T00:43:41.584Z,13.15
2022-08-20T00:46:44.764Z,12.27
2022-08-20T00:49:47.708Z,13.50
2022-08-20T00:52:51.758Z,12.98
2022-08-20T00:55:55.468Z,11.90
2022-08-20T00:58:58.447Z,12.32
2022-08-20T01:02:01.884Z,12.27
2022-08-20T01:05:05.814Z,12.00
2022-08-20T01:08:09.381Z,12.85
2022-08-20T01:11:21.551Z,11.63
2022-08-20T01:14:33.585Z,11.90
2022-08-20T01:17:37.944Z,11.77
2022-08-20T01:21:02.493Z,10.97
2022-08-20T01:24:24.986Z,11.55
2022-08-20T01:27:28.123Z,11.10
2022-08-20T01:30:34.035Z,11.65
2022-08-20T01:33:37.258Z,11.80
2022-08-20T01:36:46.579Z,11.87
2022-08-20T01:39:49.659Z,11.20
2022-08-20T01:42:59.132Z,11.00
2022-08-20T01:46:02.700Z,11.23
2022-08-20T01:49:13.632Z,11.10
2022-08-20T01:52:24.921Z,11.10
2022-08-20T01:55:27.999Z,12.38
2022-08-20T01:58:31.397Z,12.80
2022-08-20T02:01:46.368Z,11.90
2022-08-20T02:04:50.009Z,12.60
2022-08-20T02:07:53.092Z,11.70
2022-08-20T02:10:56.077Z,12.00
2022-08-20T02:13:59.117Z,10.65
2022-08-20T02:17:02.106Z,13.27
2022-08-20T02:20:09.495Z,10.97
2022-08-20T02:23:13.034Z,9.70
2022-08-20T02:26:19.066Z,10.35
2022-08-20T02:29:22.053Z,9.98
2022-08-20T02:32:33.835Z,10.68
2022-08-20T02:35:37.933Z,10.83
2022-08-20T02:38:41.333Z,11.43
2022-08-20T02:41:44.317Z,11.30
2022-08-20T02:44:47.285Z,10.50
2022-08-20T02:47:52.591Z,11.30
2022-08-20T02:51:03.915Z,11.70
2022-08-20T02:54:06.894Z,11.67
2022-08-20T02:57:14.115Z,11.27
2022-08-20T03:00:18.920Z,10.88
2022-08-20T03:03:22.831Z,12.23
2022-08-20T03:06:26.689Z,11.80
2022-08-20T03:09:29.672Z,11.07
2022-08-20T03:12:33.033Z,9.57
2022-08-20T03:15:35.974Z,11.38
2022-08-20T03:18:44.003Z,11.32
2022-08-20T03:21:47.671Z,10.33
2022-08-20T03:24:50.629Z,10.40
2022-08-20T03:27:57.675Z,9.95
2022-08-20T03:31:01.013Z,10.00
2022-08-20T03:34:04.057Z,9.85
2022-08-20T03:37:07.041Z,10.57
2022-08-20T03:40:24.904Z,10.17
2022-08-20T03:43:27.952Z,9.13
2022-08-20T03:46:30.904Z,8.52
2022-08-20T03:49:34.359Z,8.15
2022-08-20T03:52:37.513Z,8.60
2022-08-20T03:55:40.700Z,8.97
2022-08-20T03:58:43.712Z,9.73
2022-08-20T04:01:47.091Z,8.68
2022-08-20T04:04:50.173Z,9.48
2022-08-20T04:07:53.190Z,9.63
2022-08-20T04:10:58.260Z,9.60
2022-08-20T04:14:01.220Z,9.88
2022-08-20T04:17:06.414Z,8.35
2022-08-20T04:20:10.899Z,8.55
2022-08-20T04:23:14.932Z,8.77
2022-08-20T04:26:17.935Z,9.33
2022-08-20T04:29:24.671Z,9.35
2022-08-20T04:32:28.049Z,9.38
2022-08-20T04:35:31.126Z,9.18
2022-08-20T04:38:49.893Z,8.90
2022-08-20T04:41:53.708Z,8.87
2022-08-20T04:44:56.676Z,9.63
2022-08-20T04:48:04.837Z,9.05
2022-08-20T04:51:08.626Z,9.00
2022-08-20T04:54:13.842Z,9.50
2022-08-20T04:57:16.795Z,8.90
2022-08-20T05:00:20.231Z,8.68
2022-08-20T05:03:23.466Z,8.25
2022-08-20T05:06:29.903Z,9.88
2022-08-20T05:09:32.946Z,9.20
2022-08-20T05:12:56.451Z,8.87
2022-08-20T05:16:02.037Z,8.82
2022-08-20T05:19:05.998Z,8.32
2022-08-20T05:22:09.017Z,8.98
2022-08-20T05:25:12.065Z,8.60
2022-08-20T05:28:22.123Z,9.17
2022-08-20T05:31:32.000Z,8.82
2022-08-20T05:34:37.093Z,8.32
2022-08-20T05:37:43.353Z,8.68
2022-08-20T05:40:46.493Z,8.27
2022-08-20T05:43:49.438Z,8.70
2022-08-20T05:46:54.640Z,8.13
2022-08-20T05:49:57.671Z,9.63
2022-08-20T05:53:01.506Z,8.50
2022-08-20T05:56:04.740Z,9.63
2022-08-20T05:59:08.414Z,9.43
2022-08-20T06:02:31.331Z,9.48
2022-08-20T06:05:34.749Z,8.75
2022-08-20T06:08:37.795Z,9.48
2022-08-20T06:11:40.777Z,8.43
2022-08-20T06:14:44.149Z,8.43
2022-08-20T06:17:47.161Z,8.25
2022-08-20T06:21:01.018Z,8.20
2022-08-20T06:24:04.409Z,8.27
2022-08-20T06:27:07.525Z,7.50
2022-08-20T06:30:12.487Z,7.90
2022-08-20T06:33:15.541Z,7.80
2022-08-20T06:36:19.040Z,7.20
2022-08-20T06:39:22.152Z,7.00
2022-08-20T06:42:25.165Z,6.53
2022-08-20T06:45:30.324Z,6.87
2022-08-20T06:48:33.970Z,8.02
2022-08-20T06:51:40.183Z,6.95
2022-08-20T06:54:47.152Z,6.70
2022-08-20T06:58:01.384Z,6.20
2022-08-20T07:01:09.994Z,6.63
2022-08-20T07:04:13.493Z,6.75
2022-08-20T07:07:17.706Z,6.97
2022-08-20T07:10:21.008Z,6.38
2022-08-20T07:13:24.483Z,6.63
2022-08-20T07:16:28.833Z,7.37
2022-08-20T07:19:31.818Z,6.82
2022-08-20T07:22:37.769Z,6.95
2022-08-20T07:25:41.888Z,8.38
2022-08-20T07:28:44.970Z,6.93
2022-08-20T07:32:06.582Z,6.63
2022-08-20T07:35:16.956Z,7.40
2022-08-20T07:38:24.533Z,6.28
2022-08-20T07:41:27.648Z,6.78
2022-08-20T07:44:31.396Z,6.47
2022-08-20T07:47:36.148Z,7.37
2022-08-20T07:50:39.154Z,7.10
2022-08-20T07:53:42.269Z,7.05
2022-08-20T07:56:45.249Z,7.28
2022-08-20T07:59:48.800Z,7.20
2022-08-20T08:02:52.111Z,7.43
2022-08-20T08:05:55.334Z,6.75
2022-08-20T08:09:11.935Z,6.50
2022-08-20T08:12:15.113Z,6.03
2022-08-20T08:15:22.008Z,5.80
2022-08-20T08:18:30.050Z,5.47
2022-08-20T08:21:34.845Z,5.60
2022-08-20T08:24:38.018Z,6.90
2022-08-20T08:27:41.361Z,8.70
2022-08-20T08:30:45.098Z,9.97
2022-08-20T08:33:48.041Z,11.53
2022-08-20T08:36:51.567Z,12.63
2022-08-20T08:39:54.719Z,13.65
2022-08-20T08:42:58.803Z,14.57
2022-08-20T08:46:04.989Z,12.83
2022-08-20T08:49:07.994Z,12.73
2022-08-20T08:52:23.086Z,12.18
2022-08-20T08:55:28.667Z,13.15
2022-08-20T08:58:34.033Z,13.20
2022-08-20T09:01:54.186Z,12.43
2022-08-20T09:05:00.703Z,12.17
2022-08-20T09:08:04.618Z,13.05
2022-08-20T09:11:08.384Z,14.30
2022-08-20T09:14:11.390Z,15.35
2022-08-20T09:17:14.969Z,12.57
2022-08-20T09:20:18.453Z,15.47
2022-08-20T09:23:21.409Z,14.88
2022-08-20T09:26:24.456Z,14.57
2022-08-20T09:29:32.988Z,14.18
2022-08-20T09:32:36.487Z,13.13
2022-08-20T09:35:40.852Z,12.07
2022-08-20T09:38:43.826Z,13.60
2022-08-20T09:41:46.846Z,15.10
2022-08-20T09:44:49.896Z,14.70
2022-08-20T09:47:55.125Z,13.17
2022-08-20T09:51:00.369Z,15.07
2022-08-20T09:54:03.421Z,13.70
2022-08-20T09:57:07.309Z,14.70
2022-08-20T10:00:13.464Z,16.70
2022-08-20T10:03:16.728Z,15.77
2022-08-20T10:06:20.433Z,14.23
2022-08-20T10:09:23.845Z,15.82
2022-08-20T10:12:26.884Z,13.90
2022-08-20T10:15:30.663Z,13.73
2022-08-20T10:18:34.361Z,13.97
2022-08-20T10:21:39.101Z,12.90
2022-08-20T10:24:42.588Z,14.40
2022-08-20T10:27:45.754Z,12.82
2022-08-20T10:30:48.752Z,13.63
2022-08-20T10:33:51.718Z,12.47
2022-08-20T10:36:54.701Z,11.03
2022-08-20T10:39:57.748Z,9.20
2022-08-20T10:43:00.802Z,8.73
2022-08-20T10:46:03.971Z,8.25
2022-08-20T10:49:06.927Z,6.87
2022-08-20T10:52:09.911Z,6.67
2022-08-20T10:55:12.980Z,6.78
2022-08-20T10:58:15.980Z,6.47
2022-08-20T11:01:31.510Z,7.38
2022-08-20T11:04:36.421Z,7.37
2022-08-20T11:07:50.773Z,7.73
2022-08-20T11:10:59.615Z,7.40
2022-08-20T11:14:02.578Z,7.63
2022-08-20T11:17:06.217Z,7.47
2022-08-20T11:20:10.624Z,8.13
2022-08-20T11:23:13.674Z,8.23
2022-08-20T11:26:23.516Z,8.02
2022-08-20T11:29:27.648Z,7.95
2022-08-20T11:32:32.100Z,9.10
2022-08-20T11:35:49.103Z,7.63
2022-08-20T11:38:53.132Z,6.43
2022-08-20T11:41:56.102Z,6.90
2022-08-20T11:44:59.091Z,5.88
2022-08-20T11:48:02.081Z,6.28
2022-08-20T11:51:05.254Z,7.00
2022-08-20T11:54:08.212Z,5.80
2022-08-20T11:57:11.316Z,5.88
2022-08-20T12:00:20.313Z,5.70
2022-08-20T12:03:35.790Z,5.90
2022-08-20T12:06:38.741Z,6.00
2022-08-20T12:09:50.422Z,6.07
2022-08-20T12:12:54.521Z,6.70
2022-08-20T12:15:57.574Z,6.57
2022-08-20T12:19:00.533Z,6.88
2022-08-20T12:22:23.132Z,6.50
2022-08-20T12:25:26.626Z,6.20
2022-08-20T12:28:30.968Z,6.40
2022-08-20T12:31:33.960Z,6.93
2022-08-20T12:34:38.020Z,5.65
2022-08-20T12:37:41.147Z,5.50
2022-08-20T12:40:44.186Z,5.57
2022-08-20T12:43:47.144Z,5.53
2022-08-20T12:46:50.190Z,5.25
2022-08-20T12:49:58.413Z,5.63
2022-08-20T12:53:02.505Z,5.43
2022-08-20T12:56:06.057Z,5.50
2022-08-20T12:59:09.260Z,4.97
2022-08-20T13:02:14.091Z,5.43
2022-08-20T13:05:18.963Z,5.43
2022-08-20T13:08:21.949Z,5.50
2022-08-20T13:11:24.972Z,5.13
2022-08-20T13:14:28.034Z,5.10
2022-08-20T13:17:38.967Z,5.13
2022-08-20T13:20:42.636Z,5.38
2022-08-20T13:23:45.600Z,5.70
2022-08-20T13:26:49.140Z,5.17
2022-08-20T13:29:58.573Z,5.22
2022-08-20T13:33:02.218Z,4.68
2022-08-20T13:36:05.759Z,5.13
2022-08-20T13:39:08.749Z,5.60
2022-08-20T13:42:12.053Z,4.80
2022-08-20T13:45:15.038Z,4.70
2022-08-20T13:48:18.056Z,5.30
2022-08-20T13:51:21.691Z,4.75
2022-08-20T13:54:28.327Z,5.47
2022-08-20T13:57:33.342Z,5.00
2022-08-20T14:00:36.368Z,5.13
2022-08-20T14:03:39.356Z,5.22
2022-08-20T14:06:45.654Z,5.22
2022-08-20T14:09:53.964Z,5.27
2022-08-20T14:12:57.078Z,5.10
2022-08-20T14:16:00.174Z,5.20
2022-08-20T14:19:03.407Z,5.38
2022-08-20T14:22:06.424Z,5.13
2022-08-20T14:25:10.896Z,4.80
2022-08-20T14:28:18.792Z,5.60
2022-08-20T14:31:21.761Z,4.72
2022-08-20T14:34:24.706Z,4.10
2022-08-20T14:37:30.153Z,4.13
2022-08-20T14:40:33.293Z,4.97
2022-08-20T14:43:36.241Z,5.00
2022-08-20T14:46:39.190Z,4.60
2022-08-20T14:49:42.425Z,5.35
2022-08-20T14:52:45.482Z,4.95
2022-08-20T14:55:48.615Z,4.70
2022-08-20T14:58:51.635Z,4.87
2022-08-20T15:01:54.614Z,4.40
2022-08-20T15:04:59.896Z,4.57
2022-08-20T15:08:04.191Z,4.20
2022-08-20T15:11:08.738Z,4.57
2022-08-20T15:14:11.902Z,4.80
2022-08-20T15:17:28.465Z,5.15
2022-08-20T15:20:32.653Z,5.57
2022-08-20T15:23:35.599Z,4.90
2022-08-20T15:26:38.589Z,4.97
2022-08-20T15:29:41.629Z,4.83
2022-08-20T15:32:45.189Z,4.50
2022-08-20T15:35:48.195Z,5.55
2022-08-20T15:38:51.292Z,4.45
2022-08-20T15:41:54.260Z,4.57
2022-08-20T15:44:57.206Z,5.17
2022-08-20T15:48:20.352Z,5.13
2022-08-20T15:51:38.635Z,4.93
2022-08-20T15:54:41.590Z,4.82
2022-08-20T15:57:54.640Z,5.03
2022-08-20T16:01:24.282Z,4.90
2022-08-20T16:04:48.171Z,4.53
2022-08-20T16:08:01.046Z,4.80
2022-08-20T16:11:26.071Z,4.93
2022-08-20T16:14:30.754Z,5.23
2022-08-20T16:17:46.520Z,5.40
2022-08-20T16:20:51.491Z,4.70
2022-08-20T16:23:55.550Z,4.80
2022-08-20T16:27:13.807Z,4.38
2022-08-20T16:30:31.816Z,4.83
2022-08-20T16:33:37.915Z,4.60
2022-08-20T16:36:49.098Z,4.22
2022-08-20T16:40:09.714Z,6.53
2022-08-20T16:43:18.515Z,5.57
2022-08-20T16:46:25.797Z,5.13
2022-08-20T16:49:28.789Z,5.57
2022-08-20T16:52:31.737Z,5.30
2022-08-20T16:55:34.691Z,4.82
2022-08-20T16:58:37.769Z,4.80
2022-08-20T17:01:40.827Z,4.90
2022-08-20T17:04:57.870Z,5.20
2022-08-20T17:08:04.017Z,4.88
2022-08-20T17:11:29.021Z,5.18
2022-08-20T17:14:31.989Z,4.78
2022-08-20T17:17:36.649Z,5.40
2022-08-20T17:20:44.125Z,5.73
2022-08-20T17:23:55.865Z,4.85
2022-08-20T17:27:01.969Z,6.22
2022-08-20T17:30:08.309Z,6.22
2022-08-20T17:33:40.949Z,6.00
2022-08-20T17:37:01.488Z,5.73
2022-08-20T17:40:08.889Z,6.90
2022-08-20T17:43:22.623Z,6.15
2022-08-20T17:46:25.617Z,5.30
2022-08-20T17:49:36.485Z,6.30
2022-08-20T17:52:51.545Z,6.17
2022-08-20T17:56:02.591Z,5.85
2022-08-20T17:59:11.957Z,6.47
2022-08-20T18:02:15.400Z,10.55
2022-08-20T18:05:21.737Z,8.73
2022-08-20T18:08:41.208Z,7.50
2022-08-20T18:11:57.580Z,7.97
2022-08-20T18:15:10.776Z,6.80
2022-08-20T18:18:25.835Z,6.75
2022-08-20T18:21:44.028Z,7.57
2022-08-20T18:24:54.416Z,7.37
2022-08-20T18:28:03.171Z,7.72
2022-08-20T18:31:08.894Z,7.38
2022-08-20T18:34:18.450Z,7.88
2022-08-20T18:37:25.385Z,7.87
2022-08-20T18:40:33.184Z,8.43
2022-08-20T18:43:36.603Z,8.57
2022-08-20T18:46:52.406Z,8.30
2022-08-20T18:50:06.461Z,8.85
2022-08-20T18:53:33.074Z,7.20
2022-08-20T18:56:39.774Z,8.13
2022-08-20T18:59:44.647Z,8.20
2022-08-20T19:02:59.746Z,17.65
2022-08-20T19:06:26.690Z,20.85
2022-08-20T19:09:51.029Z,21.07
2022-08-20T19:13:16.316Z,9.20
2022-08-20T19:16:33.827Z,8.05
2022-08-20T19:19:36.960Z,7.65
2022-08-20T19:22:41.349Z,6.13
2022-08-20T19:26:25.755Z,6.23
2022-08-20T19:29:31.450Z,5.37
2022-08-20T19:32:34.484Z,5.30
2022-08-20T19:35:37.784Z,5.35
2022-08-20T19:38:51.567Z,5.30
2022-08-20T19:41:57.827Z,4.97
2022-08-20T19:45:06.717Z,5.47
2022-08-20T19:48:37.960Z,4.47
2022-08-20T19:52:01.949Z,5.25
2022-08-20T19:55:05.181Z,5.03
2022-08-20T19:58:16.802Z,5.53
2022-08-20T20:01:29.241Z,5.33
2022-08-20T20:04:40.147Z,4.88
2022-08-20T20:07:51.757Z,5.43
2022-08-20T20:10:56.797Z,5.32
2022-08-20T20:14:11.965Z,5.10
2022-08-20T20:17:22.396Z,5.13
2022-08-20T20:20:30.611Z,5.25
2022-08-20T20:23:45.796Z,5.72
2022-08-20T20:26:50.001Z,6.00
2022-08-20T20:30:05.745Z,6.07
2022-08-20T20:33:23.937Z,6.17
2022-08-20T20:36:41.733Z,6.50
2022-08-20T20:39:45.607Z,6.88
2022-08-20T20:43:05.890Z,6.80
2022-08-20T20:46:18.605Z,7.70
2022-08-20T20:49:30.739Z,6.83
2022-08-20T20:52:38.157Z,8.13
2022-08-20T20:55:42.685Z,7.13
2022-08-20T20:58:51.275Z,7.60
2022-08-20T21:01:58.726Z,6.87
2022-08-20T21:05:01.755Z,6.63
2022-08-20T21:08:06.151Z,7.30
2022-08-20T21:11:09.878Z,6.88
2022-08-20T21:14:12.916Z,7.40
2022-08-20T21:17:20.949Z,6.50
2022-08-20T21:20:23.902Z,6.60
2022-08-20T21:23:40.483Z,7.40
2022-08-20T21:26:44.816Z,7.07
2022-08-20T21:29:47.773Z,6.65
2022-08-20T21:32:51.002Z,7.20
2022-08-20T21:35:54.080Z,6.37
2022-08-20T21:38:57.090Z,7.32
2022-08-20T21:42:01.523Z,7.20
2022-08-20T21:45:08.406Z,6.88
2022-08-20T21:48:11.570Z,6.90
2022-08-20T21:51:14.522Z,6.87
2022-08-20T21:54:17.889Z,6.65
2022-08-20T21:57:23.548Z,6.97
2022-08-20T22:00:51.632Z,5.97
2022-08-20T22:03:54.643Z,6.53
2022-08-20T22:06:57.802Z,7.03
2022-08-20T22:10:00.783Z,7.13
2022-08-20T22:13:04.242Z,6.15
2022-08-20T22:16:09.335Z,7.18
2022-08-20T22:19:16.002Z,5.80
2022-08-20T22:22:19.761Z,6.50
2022-08-20T22:25:23.351Z,6.45
2022-08-20T22:28:26.645Z,6.13
2022-08-20T22:31:30.747Z,6.18
2022-08-20T22:34:34.750Z,6.47
2022-08-20T22:37:37.766Z,6.73
2022-08-20T22:40:40.933Z,6.60
2022-08-20T22:43:56.110Z,6.10
2022-08-20T22:47:01.916Z,6.43
2022-08-20T22:50:05.642Z,6.10
2022-08-20T22:53:08.634Z,5.30
2022-08-20T22:56:19.883Z,6.35
2022-08-20T22:59:25.004Z,5.38
2022-08-20T23:02:28.370Z,5.43
2022-08-20T23:05:32.361Z,5.50
2022-08-20T23:08:35.359Z,5.77
2022-08-20T23:11:38.337Z,5.13
2022-08-20T23:14:41.652Z,5.05
2022-08-20T23:17:44.619Z,5.15
2022-08-20T23:20:53.606Z,5.20
2022-08-20T23:23:56.608Z,4.87
2022-08-20T23:26:59.561Z,4.45
2022-08-20T23:30:02.531Z,5.03
2022-08-20T23:33:05.474Z,5.18
2022-08-20T23:36:09.520Z,5.10
2022-08-20T23:39:12.797Z,5.33
2022-08-20T23:42:15.936Z,5.20
2022-08-20T23:45:19.008Z,5.03
2022-08-20T23:48:21.948Z,5.32
2022-08-20T23:51:24.956Z,4.87
2022-08-20T23:54:29.244Z,4.93
2022-08-20T23:57:32.249Z,4.65
